Time;durP1;ratioP1;P1;durP2;ratioP2;P2;SDS_P1;SDS_P2;PMS_P1;PMS_P2;Temp;Humidity;BMP_temperature;BMP_pressure;BME280_temperature;BME280_humidity;BME280_pressure;Samples;Min_cycle;Max_cycle;Signal;HPM_P1;HPM_P2
2022/01/10 00:00:31;;;;;;;36.42;16.55;;;;;;;3.09;89.11;100983.66;7390497;19;20019;-70
2022/01/10 00:03:02;;;;;;;27.95;16.58;;;;;;;3.09;89.44;100988.81;7388554;19;20048;-68
2022/01/10 00:05:31;;;;;;;36.00;16.98;;;;;;;3.02;89.16;100992.34;7390858;19;20013;-68
2022/01/10 00:08:02;;;;;;;28.88;17.52;;;;;;;2.96;88.89;100992.44;7390483;19;20013;-68
2022/01/10 00:10:31;;;;;;;31.52;17.50;;;;;;;2.97;88.86;100996.75;7390719;19;20127;-68
2022/01/10 00:13:00;;;;;;;36.40;16.92;;;;;;;2.96;88.87;100998.44;7390307;19;20043;-68
2022/01/10 00:15:31;;;;;;;36.28;17.20;;;;;;;2.97;88.55;101012.28;7391328;19;20019;-69
2022/01/10 00:18:00;;;;;;;27.67;14.88;;;;;;;2.94;88.48;101003.66;7390377;19;20021;-69
2022/01/10 00:20:29;;;;;;;31.85;16.30;;;;;;;2.93;88.14;101014.00;7389669;19;20014;-69
2022/01/10 00:22:58;;;;;;;35.72;16.63;;;;;;;2.96;88.39;101016.56;7387742;19;20021;-69
2022/01/10 00:25:28;;;;;;;34.05;16.38;;;;;;;2.92;88.87;101015.75;7388836;19;20018;-69
2022/01/10 00:27:57;;;;;;;31.90;16.88;;;;;;;2.91;89.00;101019.22;7388026;19;20546;-69
2022/01/10 00:30:27;;;;;;;30.88;16.63;;;;;;;2.90;89.48;101016.63;7388939;19;20015;-70
2022/01/10 00:32:58;;;;;;;33.80;17.63;;;;;;;2.88;89.54;101023.53;7388945;19;20021;-68
2022/01/10 00:35:27;;;;;;;28.27;17.17;;;;;;;2.86;89.97;101025.28;7391421;19;20474;-69
2022/01/10 00:37:56;;;;;;;31.88;17.38;;;;;;;2.77;89.44;101036.59;7391929;19;20041;-69
2022/01/10 00:40:25;;;;;;;31.65;17.02;;;;;;;2.76;89.29;101033.13;7392267;19;20371;-70
2022/01/10 00:42:57;;;;;;;33.38;17.10;;;;;;;2.75;89.77;101036.59;7391707;19;20471;-69
2022/01/10 00:45:28;;;;;;;31.58;17.92;;;;;;;2.75;89.70;101048.66;7391922;19;20025;-69
2022/01/10 00:48:02;;;;;;;30.55;18.67;;;;;;;2.74;89.86;101049.56;7391826;19;20013;-68
2022/01/10 00:50:33;;;;;;;32.15;18.63;;;;;;;2.71;90.15;101050.44;7390787;19;20128;-67
2022/01/10 00:53:02;;;;;;;35.55;19.30;;;;;;;2.72;90.17;101053.88;7389014;19;20015;-69
2022/01/10 00:55:31;;;;;;;29.33;19.13;;;;;;;2.74;89.84;101063.34;7390660;19;20022;-67
2022/01/10 00:58:00;;;;;;;35.25;18.88;;;;;;;2.78;90.07;101061.59;7388731;19;20020;-68
2022/01/10 01:00:29;;;;;;;34.13;19.08;;;;;;;2.74;89.25;101070.25;7388801;19;20014;-68
2022/01/10 01:03:00;;;;;;;37.67;18.55;;;;;;;2.75;88.83;101074.53;7387684;19;20021;-68
2022/01/10 01:05:33;;;;;;;31.15;19.25;;;;;;;2.81;89.06;101076.22;7389202;19;20028;-68
2022/01/10 01:08:06;;;;;;;31.40;19.73;;;;;;;2.83;89.45;101085.69;7391118;19;20021;-69
2022/01/10 01:13:30;;;;;;;37.60;21.67;;;;;;;2.72;89.92;101092.69;7385930;19;20088;-69
2022/01/10 01:16:13;;;;;;;35.95;22.27;;;;;;;2.70;89.65;101092.69;7388229;19;20706;-69
2022/01/10 01:24:09;;;;;;;36.72;21.52;;;;;;;2.68;88.62;101112.56;7388830;19;20019;-69
2022/01/10 01:26:40;;;;;;;34.78;21.35;;;;;;;2.71;88.81;101120.28;7386205;19;20019;-69
2022/01/10 01:29:12;;;;;;;40.53;21.90;;;;;;;2.72;89.24;101122.03;7388959;19;20336;-69
2022/01/10 01:31:42;;;;;;;36.13;22.92;;;;;;;2.68;89.61;101127.19;7388510;19;20014;-69
2022/01/10 01:34:15;;;;;;;39.55;23.20;;;;;;;2.64;89.85;101128.13;7386354;19;20033;-68
2022/01/10 01:36:46;;;;;;;39.13;23.58;;;;;;;2.61;89.89;101136.75;7394809;19;20403;-69
2022/01/10 01:39:20;;;;;;;41.97;24.35;;;;;;;2.66;90.10;101141.91;7395031;19;20025;-69
2022/01/10 01:41:50;;;;;;;34.20;24.30;;;;;;;2.60;89.62;101142.78;7393152;19;20034;-69
2022/01/10 01:44:19;;;;;;;43.53;23.80;;;;;;;2.66;89.50;101142.75;7395600;19;20011;-69
2022/01/10 01:46:48;;;;;;;35.08;23.50;;;;;;;2.72;89.69;101152.19;7394914;19;20010;-69
2022/01/10 01:49:20;;;;;;;37.33;23.80;;;;;;;2.72;89.59;101155.66;7395921;19;20894;-68
2022/01/10 01:51:48;;;;;;;36.30;23.83;;;;;;;2.76;90.19;101157.34;7395168;19;20454;-69
2022/01/10 01:54:17;;;;;;;42.63;26.35;;;;;;;2.70;90.08;101161.72;7394720;19;20025;-68
2022/01/10 01:56:49;;;;;;;36.60;24.77;;;;;;;2.64;90.26;101164.34;7394378;19;20014;-68
2022/01/10 01:59:19;;;;;;;39.40;26.27;;;;;;;2.65;90.55;101168.63;7395512;19;20452;-69
2022/01/10 02:01:48;;;;;;;45.65;28.42;;;;;;;2.70;90.88;101177.22;7392696;19;20033;-68
2022/01/10 02:04:19;;;;;;;44.92;28.45;;;;;;;2.71;90.84;101169.47;7395495;19;20489;-68
2022/01/10 02:06:48;;;;;;;37.85;27.08;;;;;;;2.71;90.50;101172.03;7394328;19;20439;-68
2022/01/10 02:09:17;;;;;;;48.90;27.10;;;;;;;2.70;90.27;101175.50;7394676;19;20117;-68
2022/01/10 02:11:46;;;;;;;39.80;27.42;;;;;;;2.65;89.58;101186.72;7393691;19;20022;-68
2022/01/10 02:14:18;;;;;;;43.25;28.17;;;;;;;2.64;89.48;101180.72;7394507;19;20014;-68
2022/01/10 02:16:54;;;;;;;44.95;27.75;;;;;;;2.62;89.08;101195.38;7394068;19;20019;-68
2022/01/10 02:19:26;;;;;;;44.83;26.17;;;;;;;2.61;88.82;101196.25;7394793;19;20485;-68
2022/01/10 02:21:57;;;;;;;37.08;26.38;;;;;;;2.57;88.52;101189.38;7392583;19;20457;-68
2022/01/10 02:24:26;;;;;;;39.45;25.98;;;;;;;2.58;88.41;101196.28;7394368;19;20021;-68
2022/01/10 02:26:55;;;;;;;40.20;26.88;;;;;;;2.58;88.22;101196.28;7393048;19;20029;-69
2022/01/10 02:29:24;;;;;;;40.38;26.95;;;;;;;2.59;88.25;101200.56;7391504;19;20408;-68
2022/01/10 02:31:53;;;;;;;42.67;27.75;;;;;;;2.57;88.23;101202.31;7393774;19;20028;-68
2022/01/10 02:34:24;;;;;;;40.17;26.02;;;;;;;2.55;87.92;101199.72;7394163;19;20014;-68
2022/01/10 02:36:57;;;;;;;43.13;26.27;;;;;;;2.57;87.79;101212.66;7392542;19;20041;-68
2022/01/10 02:39:28;;;;;;;43.72;26.85;;;;;;;2.60;88.39;101223.84;7394183;19;20018;-68
2022/01/10 02:41:57;;;;;;;40.35;27.27;;;;;;;2.56;88.85;101218.69;7393015;19;20014;-68
2022/01/10 02:44:29;;;;;;;44.67;26.52;;;;;;;2.52;88.67;101227.31;7391330;19;20044;-68
2022/01/10 02:46:59;;;;;;;37.90;26.50;;;;;;;2.52;89.01;101232.50;7392192;19;20021;-68
2022/01/10 02:49:29;;;;;;;48.92;28.08;;;;;;;2.48;89.22;101235.97;7393146;19;20030;-68
2022/01/10 02:52:00;;;;;;;42.45;26.20;;;;;;;2.43;89.62;101236.00;7391921;19;20035;-68
2022/01/10 02:54:32;;;;;;;41.88;26.08;;;;;;;2.42;89.60;101239.44;7391527;19;20014;-68
2022/01/10 02:57:00;;;;;;;41.20;27.73;;;;;;;2.37;89.42;101242.03;7392584;19;20514;-68
2022/01/10 02:59:29;;;;;;;45.35;27.55;;;;;;;2.35;89.02;101250.66;7393461;19;20037;-69
2022/01/10 03:01:58;;;;;;;48.20;27.90;;;;;;;2.36;89.27;101257.56;7390827;19;20018;-67
2022/01/10 03:04:27;;;;;;;40.67;27.58;;;;;;;2.33;89.42;101257.59;7393833;19;20006;-68
2022/01/10 03:06:56;;;;;;;39.60;26.60;;;;;;;2.30;89.43;101265.34;7391795;19;20017;-68
2022/01/10 03:09:24;;;;;;;41.17;26.40;;;;;;;2.25;89.46;101283.47;7391595;19;20022;-68
2022/01/10 03:11:56;;;;;;;41.38;26.33;;;;;;;2.24;89.81;101284.31;7388923;19;20011;-68
2022/01/10 03:14:25;;;;;;;42.45;28.67;;;;;;;2.14;89.22;101278.31;7391884;19;20509;-69
2022/01/10 03:16:54;;;;;;;41.25;26.55;;;;;;;2.16;89.08;101288.66;7390594;19;20007;-68
2022/01/10 03:19:22;;;;;;;44.08;28.92;;;;;;;2.19;89.05;101291.22;7391650;19;20455;-68
2022/01/10 03:21:51;;;;;;;41.85;27.90;;;;;;;2.21;88.84;101295.53;7389771;19;20021;-68
2022/01/10 03:24:20;;;;;;;43.60;28.45;;;;;;;2.23;88.94;101300.69;7391902;19;20025;-68
2022/01/10 03:26:49;;;;;;;45.65;28.05;;;;;;;2.21;89.02;101297.25;7390493;19;20014;-68
2022/01/10 03:29:20;;;;;;;44.50;29.95;;;;;;;2.24;89.05;101305.00;7390923;19;20014;-68
2022/01/10 03:31:49;;;;;;;46.25;29.25;;;;;;;2.23;88.86;101308.44;7390890;19;20494;-68
2022/01/10 03:34:18;;;;;;;40.00;26.95;;;;;;;2.20;88.56;101314.47;7390569;19;20333;-68
2022/01/10 03:36:47;;;;;;;54.35;31.65;;;;;;;2.20;88.35;101323.97;7389525;19;20020;-67
2022/01/10 03:39:17;;;;;;;44.13;28.95;;;;;;;2.22;88.31;101320.53;7391000;19;20019;-68
2022/01/10 03:41:46;;;;;;;45.22;29.98;;;;;;;2.21;88.04;101331.72;7389611;19;20033;-68
2022/01/10 03:44:15;;;;;;;47.08;29.67;;;;;;;2.22;88.34;101340.34;7390720;19;20029;-66
2022/01/10 03:46:47;;;;;;;42.05;29.13;;;;;;;2.31;88.60;101340.34;7389388;19;20006;-68
2022/01/10 03:49:16;;;;;;;45.97;31.35;;;;;;;2.31;88.81;101342.91;7391572;19;20010;-68
2022/01/10 03:51:45;;;;;;;46.50;31.00;;;;;;;2.38;89.12;101354.13;7389804;19;20384;-68
2022/01/10 03:54:14;;;;;;;51.20;32.63;;;;;;;2.33;88.97;101356.69;7389850;19;20018;-68
2022/01/10 03:56:43;;;;;;;52.03;32.70;;;;;;;2.34;88.94;101362.75;7389702;19;20011;-68
2022/01/10 03:59:12;;;;;;;46.97;31.75;;;;;;;2.40;89.06;101367.91;7388867;19;20486;-68
2022/01/10 04:01:41;;;;;;;50.47;30.88;;;;;;;2.41;88.78;101367.06;7389839;19;20017;-67
2022/01/10 04:04:13;;;;;;;48.22;33.60;;;;;;;2.47;89.41;101374.78;7390268;19;20340;-67
2022/01/10 04:06:42;;;;;;;56.13;34.30;;;;;;;2.42;89.56;101359.28;7389448;19;20014;-68
2022/01/10 04:09:12;;;;;;;50.60;34.25;;;;;;;2.38;89.79;101369.66;7390455;19;20006;-68
2022/01/10 04:11:40;;;;;;;52.67;33.58;;;;;;;2.40;90.03;101388.59;7390467;19;20031;-68
2022/01/10 04:14:09;;;;;;;54.72;35.67;;;;;;;2.40;90.12;101371.34;7391169;19;20455;-68
2022/01/10 04:16:39;;;;;;;48.40;34.22;;;;;;;2.43;89.88;101384.25;7390327;19;20094;-68
2022/01/10 04:19:08;;;;;;;50.13;35.10;;;;;;;2.45;89.81;101391.16;7389784;19;20026;-68
2022/01/10 04:21:39;;;;;;;52.58;35.78;;;;;;;2.46;89.49;101400.66;7389180;19;20312;-68
2022/01/10 04:24:08;;;;;;;53.42;35.20;;;;;;;2.46;89.15;101408.41;7390086;19;20015;-68
2022/01/10 04:26:37;;;;;;;50.72;34.38;;;;;;;2.52;89.10;101408.41;7389235;19;20011;-68
2022/01/10 04:29:06;;;;;;;56.30;36.45;;;;;;;2.54;90.03;101415.31;7389773;19;20032;-68
2022/01/10 04:31:35;;;;;;;52.45;35.25;;;;;;;2.42;89.42;101423.94;7389018;19;20475;-68
2022/01/10 04:34:03;;;;;;;51.75;36.75;;;;;;;2.46;89.50;101429.97;7389246;19;20015;-68
2022/01/10 04:36:32;;;;;;;51.10;35.55;;;;;;;2.46;89.24;101435.13;7389289;19;20022;-68
2022/01/10 04:39:04;;;;;;;56.35;36.30;;;;;;;2.45;89.14;101433.44;7389648;19;20028;-68
2022/01/10 04:41:33;;;;;;;56.08;37.22;;;;;;;2.48;89.40;101446.34;7388519;19;20021;-68
2022/01/10 04:44:01;;;;;;;59.42;38.00;;;;;;;2.53;89.42;101443.75;7389416;19;20017;-68
2022/01/10 04:46:30;;;;;;;56.15;36.50;;;;;;;2.53;89.45;101454.97;7388888;19;20591;-67
2022/01/10 04:49:00;;;;;;;54.08;36.38;;;;;;;2.56;89.93;101459.28;7387445;19;20644;-68
2022/01/10 04:51:31;;;;;;;59.30;37.83;;;;;;;2.58;90.27;101463.59;7389038;19;20029;-68
2022/01/10 04:54:00;;;;;;;53.00;37.88;;;;;;;2.58;90.56;101463.59;7388939;19;20368;-67
2022/01/10 04:56:32;;;;;;;56.00;37.33;;;;;;;2.58;90.70;101467.91;7386338;19;20386;-67
2022/01/10 04:59:01;;;;;;;61.10;37.85;;;;;;;2.55;90.70;101476.53;7388593;19;20010;-67
2022/01/10 05:01:29;;;;;;;54.35;38.00;;;;;;;2.58;90.77;101476.53;7389629;19;20015;-68
2022/01/10 05:03:58;;;;;;;61.67;39.15;;;;;;;2.57;90.61;101474.78;7391452;19;20090;-68
2022/01/10 05:06:27;;;;;;;59.35;38.38;;;;;;;2.58;90.46;101486.88;7390392;19;20018;-68
2022/01/10 05:08:56;;;;;;;55.25;37.53;;;;;;;2.59;90.12;101485.13;7392034;19;20073;-68
2022/01/10 05:11:25;;;;;;;58.47;38.35;;;;;;;2.63;89.88;101488.59;7398080;19;20037;-68
2022/01/10 05:13:56;;;;;;;57.97;37.20;;;;;;;2.66;90.46;101502.38;7397482;19;20054;-68
2022/01/10 05:16:25;;;;;;;57.35;39.13;;;;;;;2.64;90.36;101505.84;7396182;19;20011;-68
2022/01/10 05:18:54;;;;;;;55.72;37.65;;;;;;;2.65;90.97;101518.78;7390437;19;20021;-67
2022/01/10 05:21:23;;;;;;;63.63;39.05;;;;;;;2.63;91.01;101528.25;7391699;19;20030;-67
2022/01/10 05:23:52;;;;;;;62.15;38.75;;;;;;;2.57;90.64;101526.53;7393351;19;20013;-68
2022/01/10 05:26:21;;;;;;;56.20;37.90;;;;;;;2.58;90.82;101525.69;7391491;19;20040;-69
2022/01/10 05:28:49;;;;;;;60.72;40.92;;;;;;;2.60;90.98;101530.84;7391260;19;20018;-68
2022/01/10 05:31:21;;;;;;;60.97;40.42;;;;;;;2.64;90.70;101530.00;7395643;19;20025;-68
2022/01/10 05:33:50;;;;;;;59.35;40.47;;;;;;;2.67;90.42;101544.66;7397516;19;20462;-68
2022/01/10 05:36:19;;;;;;;58.40;39.28;;;;;;;2.62;90.42;101547.22;7397922;19;20074;-68
2022/01/10 05:38:48;;;;;;;62.08;39.45;;;;;;;2.69;90.15;101548.97;7398178;19;20029;-67
2022/01/10 05:41:17;;;;;;;57.58;36.55;;;;;;;2.77;90.32;101559.31;7393754;19;20023;-67
2022/01/10 05:43:46;;;;;;;60.42;38.05;;;;;;;2.76;90.12;101562.78;7388700;19;20338;-66
2022/01/10 05:46:16;;;;;;;58.72;38.50;;;;;;;2.78;89.80;101561.06;7387415;19;20032;-67
2022/01/10 05:48:51;;;;;;;66.82;41.30;;;;;;;2.75;89.80;101576.56;7388615;19;20355;-67
2022/01/10 05:51:22;;;;;;;62.25;38.72;;;;;;;2.65;89.59;101565.38;7388406;19;20025;-68
2022/01/10 05:53:52;;;;;;;53.50;37.17;;;;;;;2.67;89.64;101570.53;7386372;19;20356;-67
2022/01/10 05:56:20;;;;;;;58.80;39.00;;;;;;;2.64;89.58;101578.31;7387714;19;20010;-67
2022/01/10 05:58:49;;;;;;;58.60;37.53;;;;;;;2.67;89.60;101589.50;7387520;19;20350;-68
2022/01/10 06:01:18;;;;;;;52.67;36.45;;;;;;;2.71;89.64;101580.88;7386699;19;20073;-67
2022/01/10 06:03:49;;;;;;;57.35;38.05;;;;;;;2.75;89.63;101585.22;7384971;19;20025;-67
2022/01/10 06:06:18;;;;;;;59.30;38.03;;;;;;;2.74;89.33;101586.06;7386200;19;20026;-67
2022/01/10 06:08:47;;;;;;;60.60;37.78;;;;;;;2.72;89.34;101599.84;7387148;19;20023;-67
2022/01/10 06:11:16;;;;;;;55.15;37.22;;;;;;;2.79;89.09;101599.00;7387138;19;20028;-67
2022/01/10 06:13:45;;;;;;;57.05;36.78;;;;;;;2.83;89.32;101598.13;7384102;19;20019;-68
2022/01/10 06:16:15;;;;;;;54.35;36.47;;;;;;;2.85;89.22;101604.19;7386322;19;20023;-68
2022/01/10 06:18:44;;;;;;;55.97;38.63;;;;;;;2.85;89.04;101609.38;7386731;19;20025;-67
2022/01/10 06:21:15;;;;;;;59.70;36.63;;;;;;;2.85;88.79;101619.72;7389034;19;20010;-67
2022/01/10 06:23:44;;;;;;;57.28;37.15;;;;;;;2.86;88.80;101625.75;7391633;19;20357;-67
2022/01/10 06:26:13;;;;;;;53.42;35.88;;;;;;;2.90;88.77;101627.50;7392838;19;20024;-68
2022/01/10 06:28:42;;;;;;;52.45;35.70;;;;;;;2.93;89.03;101635.25;7393675;19;20469;-67
2022/01/10 06:31:11;;;;;;;53.03;35.85;;;;;;;2.92;88.70;101646.47;7393603;19;20053;-68
2022/01/10 06:33:39;;;;;;;58.05;37.03;;;;;;;2.89;88.83;101652.50;7391191;19;20040;-67
2022/01/10 06:36:09;;;;;;;54.90;37.92;;;;;;;2.88;88.88;101655.97;7392905;19;20016;-67
2022/01/10 06:38:40;;;;;;;56.95;36.17;;;;;;;2.93;89.09;101653.38;7393380;19;20014;-67
2022/01/10 06:41:09;;;;;;;56.22;36.03;;;;;;;2.98;89.13;101656.84;7393245;19;20022;-67
2022/01/10 06:43:39;;;;;;;63.78;37.58;;;;;;;2.98;88.82;101664.59;7391260;19;20022;-69
2022/01/10 06:46:08;;;;;;;57.80;37.53;;;;;;;2.99;89.17;101661.13;7392615;19;20604;-68
2022/01/10 06:48:37;;;;;;;60.03;38.20;;;;;;;2.99;88.98;101668.03;7390546;19;20021;-68
2022/01/10 06:51:06;;;;;;;47.78;35.58;;;;;;;3.01;89.00;101679.25;7393477;19;20024;-68
2022/01/10 06:53:35;;;;;;;55.63;36.90;;;;;;;3.03;89.21;101680.13;7390720;19;20022;-68
2022/01/10 06:56:06;;;;;;;58.00;36.75;;;;;;;2.99;88.84;101679.25;7389897;19;20215;-68
2022/01/10 06:58:35;;;;;;;56.85;36.55;;;;;;;3.00;88.65;101690.50;7392627;19;20014;-68
2022/01/10 07:01:04;;;;;;;62.88;38.70;;;;;;;2.95;88.49;101695.66;7392864;19;20416;-67
2022/01/10 07:03:33;;;;;;;55.63;35.95;;;;;;;2.94;88.59;101702.56;7390373;19;20010;-69
2022/01/10 07:06:02;;;;;;;58.45;36.72;;;;;;;2.95;88.28;101706.00;7392176;19;20025;-67
2022/01/10 07:08:31;;;;;;;54.42;34.65;;;;;;;2.98;88.33;101712.91;7394238;19;20014;-68
2022/01/10 07:11:00;;;;;;;58.20;36.63;;;;;;;2.96;88.39;101723.25;7393192;19;20016;-67
2022/01/10 07:13:32;;;;;;;55.88;35.80;;;;;;;2.93;88.43;101724.13;7391422;19;20018;-68
2022/01/10 07:16:00;;;;;;;53.50;35.20;;;;;;;2.94;88.34;101723.25;7393263;19;20006;-69
2022/01/10 07:18:29;;;;;;;59.20;37.53;;;;;;;2.96;88.30;101743.13;7393276;19;20365;-68
2022/01/10 07:20:58;;;;;;;58.30;36.95;;;;;;;2.94;88.23;101743.97;7393134;19;20015;-67
2022/01/10 07:23:27;;;;;;;60.78;38.40;;;;;;;2.95;88.23;101760.38;7391250;19;20015;-70
2022/01/10 07:25:56;;;;;;;57.78;36.22;;;;;;;2.95;88.46;101760.38;7391884;19;20018;-67
2022/01/10 07:28:24;;;;;;;59.10;36.92;;;;;;;2.98;88.24;101763.00;7392509;19;20017;-68
2022/01/10 07:30:57;;;;;;;55.97;36.38;;;;;;;3.02;88.21;101769.03;7392076;19;20026;-67
2022/01/10 07:33:25;;;;;;;53.72;35.28;;;;;;;3.00;88.32;101774.19;7388651;19;20491;-67
2022/01/10 07:35:54;;;;;;;59.95;37.92;;;;;;;2.98;88.09;101778.53;7391724;19;20020;-67
2022/01/10 07:38:23;;;;;;;56.83;37.83;;;;;;;2.97;88.25;101787.13;7393298;19;20015;-68
2022/01/10 07:40:52;;;;;;;60.67;36.95;;;;;;;2.93;88.16;101793.16;7392719;19;20014;-67
2022/01/10 07:43:21;;;;;;;57.92;37.20;;;;;;;2.96;88.06;101797.50;7390912;19;20018;-68
2022/01/10 07:45:50;;;;;;;56.55;36.35;;;;;;;2.97;88.08;101799.22;7392007;19;20070;-67
2022/01/10 07:48:21;;;;;;;54.33;36.78;;;;;;;2.96;88.15;101800.09;7391967;19;20018;-68
2022/01/10 07:50:50;;;;;;;56.50;36.28;;;;;;;2.97;88.19;101815.63;7392042;19;20030;-67
2022/01/10 07:53:19;;;;;;;55.22;37.60;;;;;;;2.94;88.12;101808.69;7390335;19;20015;-68
2022/01/10 07:55:48;;;;;;;55.95;36.30;;;;;;;3.00;87.96;101817.34;7391537;19;20007;-68
2022/01/10 07:58:17;;;;;;;57.08;36.33;;;;;;;3.03;88.13;101820.81;7391818;19;20082;-66
2022/01/10 08:00:46;;;;;;;58.40;37.45;;;;;;;3.01;88.09;101824.25;7391743;19;20018;-66
2022/01/10 08:03:15;;;;;;;58.70;36.10;;;;;;;3.07;88.15;101839.81;7389563;19;20014;-68
2022/01/10 08:05:46;;;;;;;53.85;35.55;;;;;;;3.05;87.81;101844.09;7391138;19;20021;-68
2022/01/10 08:08:15;;;;;;;60.00;38.25;;;;;;;2.99;87.94;101844.94;7391688;19;20013;-68
2022/01/10 08:10:44;;;;;;;63.40;39.55;;;;;;;3.00;88.20;101846.69;7392008;19;20017;-68
2022/01/10 08:13:13;;;;;;;62.30;37.85;;;;;;;3.04;88.32;101853.63;7389480;19;20021;-68
2022/01/10 08:15:42;;;;;;;60.08;38.53;;;;;;;3.03;88.25;101851.03;7391317;19;20010;-67
2022/01/10 08:18:11;;;;;;;58.40;38.42;;;;;;;3.04;88.42;101860.53;7390605;19;20359;-68
2022/01/10 08:20:40;;;;;;;57.13;38.35;;;;;;;3.08;88.38;101863.13;7391087;19;20452;-68
2022/01/10 08:23:11;;;;;;;55.20;36.70;;;;;;;3.09;88.36;101877.78;7390155;19;20090;-68
2022/01/10 08:25:40;;;;;;;65.07;39.60;;;;;;;3.09;88.10;101876.94;7391288;19;20013;-68
2022/01/10 08:28:09;;;;;;;61.95;37.53;;;;;;;3.07;88.00;101876.94;7390678;19;20022;-68
2022/01/10 08:30:38;;;;;;;57.42;38.47;;;;;;;3.09;88.00;101885.56;7391015;19;20501;-68
2022/01/10 08:33:07;;;;;;;58.47;38.28;;;;;;;3.10;88.04;101900.25;7389431;19;20014;-67
2022/01/10 08:35:36;;;;;;;53.03;36.25;;;;;;;3.15;87.99;101894.22;7391186;19;20026;-67
2022/01/10 08:38:05;;;;;;;57.95;38.22;;;;;;;3.14;87.85;101902.84;7389963;19;20021;-68
2022/01/10 08:40:36;;;;;;;60.95;37.75;;;;;;;3.17;88.00;101913.22;7388957;19;20018;-68
2022/01/10 08:43:09;;;;;;;60.22;39.78;;;;;;;3.20;88.08;101915.84;7389164;19;20015;-67
2022/01/10 08:45:39;;;;;;;66.38;42.17;;;;;;;3.27;88.07;101917.59;7391561;19;20019;-69
2022/01/10 08:48:08;;;;;;;60.20;40.35;;;;;;;3.28;88.26;101914.13;7390642;19;20020;-68
2022/01/10 08:50:38;;;;;;;59.17;39.88;;;;;;;3.29;88.25;101918.44;7391507;19;20022;-68
2022/01/10 08:53:12;;;;;;;59.60;39.20;;;;;;;3.24;88.10;101933.13;7390785;19;20339;-67
2022/01/10 08:55:44;;;;;;;55.85;38.30;;;;;;;3.27;88.12;101936.56;7391656;19;20423;-69
2022/01/10 08:58:13;;;;;;;57.30;38.22;;;;;;;3.27;88.05;101941.75;7390408;19;20048;-69
2022/01/10 09:00:42;;;;;;;54.28;38.50;;;;;;;3.28;88.04;101946.09;7391665;19;20074;-69
2022/01/10 09:03:11;;;;;;;57.58;40.15;;;;;;;3.24;88.01;101949.53;7389950;19;20478;-66
2022/01/10 09:05:39;;;;;;;56.65;40.10;;;;;;;3.24;88.07;101959.88;7390431;19;20328;-67
2022/01/10 09:08:09;;;;;;;58.72;38.88;;;;;;;3.28;88.16;101960.75;7390378;19;20012;-66
2022/01/10 09:10:38;;;;;;;60.38;38.92;;;;;;;3.29;88.13;101965.06;7392139;19;20097;-66
2022/01/10 09:13:09;;;;;;;61.92;41.17;;;;;;;3.30;88.10;101964.22;7391205;19;20077;-68
2022/01/10 09:15:39;;;;;;;60.97;39.23;;;;;;;3.31;88.00;101971.16;7392144;19;20021;-68
2022/01/10 09:18:08;;;;;;;55.60;37.53;;;;;;;3.33;88.00;101977.19;7390024;19;20006;-66
2022/01/10 09:20:37;;;;;;;57.83;37.55;;;;;;;3.40;88.23;101985.84;7391657;19;20029;-68
2022/01/10 09:23:06;;;;;;;56.20;37.50;;;;;;;3.42;88.35;101979.81;7390036;19;20021;-67
2022/01/10 09:25:35;;;;;;;57.85;38.30;;;;;;;3.44;87.93;101983.28;7394591;19;20019;-67
2022/01/10 09:28:04;;;;;;;58.25;38.40;;;;;;;3.44;87.90;101983.28;7394446;19;20031;-67
2022/01/10 09:30:35;;;;;;;53.80;37.45;;;;;;;3.47;87.76;101988.47;7393359;19;20021;-69
2022/01/10 09:33:04;;;;;;;58.58;37.92;;;;;;;3.50;87.90;101991.94;7392784;19;20062;-68
2022/01/10 09:35:33;;;;;;;57.30;39.13;;;;;;;3.48;88.03;101999.69;7393290;19;20078;-68
2022/01/10 09:38:02;;;;;;;60.40;38.15;;;;;;;3.47;87.91;102001.44;7392767;19;20029;-69
2022/01/10 09:40:31;;;;;;;58.88;38.75;;;;;;;3.45;87.67;102010.94;7392215;19;20025;-67
2022/01/10 09:43:00;;;;;;;53.05;36.10;;;;;;;3.47;87.80;102016.97;7390430;19;20014;-68
2022/01/10 09:45:29;;;;;;;56.38;38.60;;;;;;;3.47;87.51;102021.31;7393573;19;20118;-68
2022/01/10 09:48:01;;;;;;;54.20;37.63;;;;;;;3.49;87.38;102024.75;7390191;19;20018;-67
2022/01/10 09:50:30;;;;;;;54.13;35.97;;;;;;;3.53;87.54;102026.50;7391520;19;20027;-68
2022/01/10 09:52:59;;;;;;;59.08;38.45;;;;;;;3.60;87.57;102033.44;7389638;19;20018;-66
2022/01/10 09:55:31;;;;;;;63.13;39.22;;;;;;;3.63;87.36;102040.38;7390742;19;20122;-66
2022/01/10 09:58:00;;;;;;;59.43;36.70;;;;;;;3.66;86.98;102039.53;7396996;19;20018;-67
2022/01/10 10:00:29;;;;;;;52.92;35.50;;;;;;;3.64;86.92;102042.97;7398298;19;20368;-66
2022/01/10 10:03:01;;;;;;;54.05;36.33;;;;;;;3.68;86.88;102048.16;7395379;19;20028;-66
2022/01/10 10:05:29;;;;;;;54.78;36.20;;;;;;;3.70;86.95;102049.91;7397845;19;20014;-67
2022/01/10 10:07:59;;;;;;;61.47;40.00;;;;;;;3.73;86.64;102057.69;7397216;19;20021;-69
2022/01/10 10:10:30;;;;;;;57.47;38.42;;;;;;;3.72;86.65;102055.09;7397673;19;20102;-67
2022/01/10 10:12:59;;;;;;;59.33;38.45;;;;;;;3.74;86.78;102066.31;7393895;19;20021;-68
2022/01/10 10:15:32;;;;;;;54.40;38.38;;;;;;;3.76;86.73;102062.88;7397324;19;20482;-65
2022/01/10 10:18:08;;;;;;;55.08;36.92;;;;;;;3.86;86.71;102074.16;7395796;19;20078;-66
2022/01/10 10:20:37;;;;;;;56.50;39.20;;;;;;;3.91;86.52;102075.06;7396853;19;20011;-68
2022/01/10 10:23:06;;;;;;;53.28;35.42;;;;;;;3.83;85.66;102074.16;7395189;19;20017;-66
2022/01/10 10:25:35;;;;;;;54.50;35.78;;;;;;;3.81;86.08;102081.94;7398491;19;20115;-67
2022/01/10 10:28:05;;;;;;;54.83;36.97;;;;;;;3.77;86.25;102081.91;7397359;19;20018;-66
2022/01/10 10:30:35;;;;;;;50.33;34.40;;;;;;;3.86;86.53;102079.34;7397976;19;20351;-66
2022/01/10 10:33:18;;;;;;;57.20;37.00;;;;;;;3.93;86.37;102082.84;7395146;19;20018;-69
2022/01/10 10:35:57;;;;;;;56.00;36.33;;;;;;;3.96;86.46;102088.03;7394325;19;20348;-68
2022/01/10 10:38:27;;;;;;;63.80;38.13;;;;;;;3.98;86.37;102088.88;7397299;19;20347;-66
2022/01/10 10:40:56;;;;;;;55.95;36.22;;;;;;;4.00;86.22;102097.56;7397901;19;20021;-68
2022/01/10 10:43:26;;;;;;;55.97;36.85;;;;;;;4.08;86.57;102094.97;7395906;19;20017;-67
2022/01/10 10:45:55;;;;;;;55.55;36.08;;;;;;;4.14;86.90;102105.38;7398722;19;20021;-67
2022/01/10 10:48:26;;;;;;;52.35;34.72;;;;;;;4.05;85.43;102108.78;7394140;19;20360;-70
2022/01/10 10:50:55;;;;;;;53.17;35.28;;;;;;;3.98;85.48;102107.94;7404145;19;20355;-68
2022/01/10 10:53:29;;;;;;;55.40;36.53;;;;;;;4.02;85.91;102110.53;7404003;19;20075;-69
2022/01/10 10:56:01;;;;;;;54.47;37.45;;;;;;;4.10;86.10;102120.06;7405357;19;20021;-66
2022/01/10 10:58:30;;;;;;;58.10;37.72;;;;;;;4.10;86.05;102120.06;7403566;19;20014;-68
2022/01/10 11:01:00;;;;;;;53.65;35.75;;;;;;;4.21;86.31;102127.00;7398772;19;20017;-68
2022/01/10 11:03:31;;;;;;;61.13;40.88;;;;;;;4.27;86.33;102129.63;7394153;19;20023;-66
2022/01/10 11:06:02;;;;;;;59.47;39.42;;;;;;;4.38;86.26;102132.25;7395011;19;20011;-68
2022/01/10 11:08:35;;;;;;;52.58;37.03;;;;;;;4.41;85.79;102134.88;7395561;19;20376;-67
2022/01/10 11:11:05;;;;;;;53.88;36.05;;;;;;;4.42;85.61;102137.47;7394614;19;20010;-68
2022/01/10 11:13:35;;;;;;;58.67;38.88;;;;;;;4.50;85.61;102143.53;7392632;19;20010;-66
2022/01/10 11:16:04;;;;;;;57.63;37.95;;;;;;;4.61;85.50;102137.50;7394276;19;20014;-67
2022/01/10 11:18:36;;;;;;;55.13;38.45;;;;;;;4.69;85.42;102148.78;7395219;19;20113;-67
2022/01/10 11:21:05;;;;;;;54.22;37.10;;;;;;;4.79;85.83;102147.91;7395233;19;20491;-69
2022/01/10 11:23:34;;;;;;;53.92;36.42;;;;;;;4.87;85.85;102147.91;7392838;19;20348;-68
2022/01/10 11:26:08;;;;;;;54.53;37.20;;;;;;;4.97;85.56;102159.19;7393819;19;20029;-69
2022/01/10 11:28:47;;;;;;;62.05;37.05;;;;;;;4.97;85.02;102157.47;7394177;19;20015;-70
2022/01/10 11:31:22;;;;;;;57.63;36.28;;;;;;;5.12;84.80;102155.75;7395585;19;20015;-67
2022/01/10 11:33:54;;;;;;;53.03;33.80;;;;;;;5.19;84.23;102166.13;7395765;19;20034;-67
2022/01/10 11:36:24;;;;;;;;;;;;;;;5.20;84.06;102167.88;7394791;19;20007;-68